createdAt,value
2023-04-15T00:01:06.217Z,18.73
2023-04-15T00:03:35.093Z,18.60
2023-04-15T00:06:02.587Z,19.08
2023-04-15T00:08:30.356Z,19.02
2023-04-15T00:10:59.585Z,19.27
2023-04-15T00:13:26.590Z,18.83
2023-04-15T00:15:53.580Z,18.92
2023-04-15T00:18:20.551Z,18.27
2023-04-15T00:20:47.927Z,18.92
2023-04-15T00:23:14.923Z,18.58
2023-04-15T00:25:41.946Z,19.33
2023-04-15T00:28:09.519Z,18.73
2023-04-15T00:30:36.552Z,18.15
2023-04-15T00:33:03.950Z,18.50
2023-04-15T00:35:33.988Z,18.55
2023-04-15T00:38:01.029Z,18.27
2023-04-15T00:40:28.111Z,18.67
2023-04-15T00:42:55.308Z,18.85
2023-04-15T00:45:22.654Z,19.40
2023-04-15T00:47:49.829Z,19.35
2023-04-15T00:50:16.912Z,19.15
2023-04-15T00:52:43.885Z,19.13
2023-04-15T00:55:11.399Z,19.70
2023-04-15T00:57:39.920Z,19.58
2023-04-15T01:00:11.723Z,20.23
2023-04-15T01:02:39.381Z,19.60
2023-04-15T01:05:07.791Z,19.27
2023-04-15T01:07:34.873Z,19.75
2023-04-15T01:10:03.411Z,19.52
2023-04-15T01:12:33.352Z,19.90
2023-04-15T01:15:01.225Z,20.27
2023-04-15T01:17:28.410Z,20.90
2023-04-15T01:19:58.216Z,20.73
2023-04-15T01:22:26.890Z,20.35
2023-04-15T01:25:11.785Z,20.67
2023-04-15T01:27:42.428Z,19.40
2023-04-15T01:30:10.748Z,19.75
2023-04-15T01:32:38.502Z,20.38
2023-04-15T01:35:05.974Z,20.60
2023-04-15T01:37:33.207Z,20.73
2023-04-15T01:40:00.255Z,20.45
2023-04-15T01:42:27.902Z,20.90
2023-04-15T01:44:55.036Z,20.52
2023-04-15T01:47:22.633Z,20.92
2023-04-15T01:49:49.807Z,20.63
2023-04-15T01:52:16.949Z,21.17
2023-04-15T01:54:43.948Z,20.38
2023-04-15T01:57:10.977Z,20.25
2023-04-15T01:59:38.426Z,20.52
2023-04-15T02:02:05.569Z,20.83
2023-04-15T02:04:32.767Z,20.08
2023-04-15T02:07:00.036Z,20.40
2023-04-15T02:09:27.000Z,20.33
2023-04-15T02:11:54.440Z,20.13
2023-04-15T02:14:21.618Z,19.98
2023-04-15T02:16:48.751Z,20.02
2023-04-15T02:19:15.853Z,20.25
2023-04-15T02:21:42.822Z,20.02
2023-04-15T02:24:09.935Z,20.30
2023-04-15T02:26:36.906Z,20.92
2023-04-15T02:29:04.151Z,20.55
2023-04-15T02:31:34.207Z,20.77
2023-04-15T02:34:03.147Z,19.92
2023-04-15T02:36:31.745Z,19.92
2023-04-15T02:38:58.960Z,20.15
2023-04-15T02:41:27.935Z,20.15
2023-04-15T02:43:55.226Z,19.42
2023-04-15T02:46:23.109Z,19.63
2023-04-15T02:48:50.795Z,19.52
2023-04-15T02:51:22.943Z,19.50
2023-04-15T02:53:50.787Z,19.50
2023-04-15T02:56:19.539Z,19.63
2023-04-15T02:58:46.510Z,19.02
2023-04-15T03:01:13.819Z,19.10
2023-04-15T03:03:41.096Z,19.02
2023-04-15T03:06:09.170Z,18.63
2023-04-15T03:08:36.597Z,19.08
2023-04-15T03:11:03.907Z,18.80
2023-04-15T03:13:31.392Z,19.50
2023-04-15T03:15:58.422Z,18.95
2023-04-15T03:18:25.518Z,19.13
2023-04-15T03:20:52.506Z,18.85
2023-04-15T03:23:19.902Z,19.20
2023-04-15T03:25:46.928Z,19.70
2023-04-15T03:28:13.974Z,18.73
2023-04-15T03:30:41.042Z,18.92
2023-04-15T03:33:08.683Z,19.08
2023-04-15T03:35:35.998Z,19.15
2023-04-15T03:38:02.931Z,18.92
2023-04-15T03:40:29.968Z,19.00
2023-04-15T03:42:57.043Z,18.90
2023-04-15T03:45:24.001Z,18.73
2023-04-15T03:47:51.112Z,19.05
2023-04-15T03:50:18.150Z,18.60
2023-04-15T03:52:45.824Z,18.55
2023-04-15T03:55:12.796Z,19.00
2023-04-15T03:57:39.937Z,18.50
2023-04-15T04:00:09.435Z,18.33
2023-04-15T04:02:36.881Z,18.52
2023-04-15T04:05:04.396Z,18.65
2023-04-15T04:07:31.327Z,18.85
2023-04-15T04:09:58.711Z,19.02
2023-04-15T04:12:25.763Z,18.98
2023-04-15T04:14:52.745Z,18.83
2023-04-15T04:17:19.786Z,19.10
2023-04-15T04:19:46.830Z,18.80
2023-04-15T04:22:13.766Z,19.20
2023-04-15T04:24:40.893Z,22.02
2023-04-15T04:27:07.980Z,22.15
2023-04-15T04:29:34.942Z,22.25
2023-04-15T04:32:01.970Z,24.00
2023-04-15T04:34:28.980Z,22.90
2023-04-15T04:36:56.105Z,22.77
2023-04-15T04:39:23.093Z,21.85
2023-04-15T04:41:50.746Z,21.17
2023-04-15T04:44:17.701Z,21.20
2023-04-15T04:46:44.934Z,19.80
2023-04-15T04:49:11.900Z,20.08
2023-04-15T04:51:39.037Z,20.42
2023-04-15T04:54:06.058Z,20.13
2023-04-15T04:56:34.415Z,19.42
2023-04-15T04:59:02.065Z,20.42
2023-04-15T05:01:29.235Z,20.23
2023-04-15T05:03:56.635Z,19.05
2023-04-15T05:06:23.825Z,20.15
2023-04-15T05:08:50.926Z,19.85
2023-04-15T05:11:18.008Z,19.48
2023-04-15T05:13:45.027Z,20.10
2023-04-15T05:16:12.503Z,19.45
2023-04-15T05:18:39.627Z,19.30
2023-04-15T05:21:06.979Z,20.25
2023-04-15T05:23:34.310Z,19.67
2023-04-15T05:26:01.325Z,19.83
2023-04-15T05:28:28.269Z,19.23
2023-04-15T05:30:55.577Z,20.08
2023-04-15T05:33:23.230Z,19.30
2023-04-15T05:35:50.614Z,20.08
2023-04-15T05:38:17.715Z,19.10
2023-04-15T05:40:44.877Z,19.15
2023-04-15T05:43:11.810Z,19.08
2023-04-15T05:45:38.835Z,19.33
2023-04-15T05:48:06.589Z,18.75
2023-04-15T05:50:33.611Z,18.55
2023-04-15T05:53:00.924Z,18.52
2023-04-15T05:55:27.882Z,18.60
2023-04-15T05:57:54.860Z,19.20
2023-04-15T06:00:22.404Z,18.48
2023-04-15T06:02:50.116Z,18.38
2023-04-15T06:05:17.230Z,18.55
2023-04-15T06:07:45.583Z,17.85
2023-04-15T06:10:14.246Z,17.95
2023-04-15T06:12:41.278Z,17.35
2023-04-15T06:15:10.485Z,18.20
2023-04-15T06:17:37.522Z,18.08
2023-04-15T06:20:05.200Z,18.63
2023-04-15T06:22:32.205Z,18.80
2023-04-15T06:24:59.283Z,18.48
2023-04-15T06:27:26.279Z,17.98
2023-04-15T06:29:53.299Z,17.45
2023-04-15T06:32:20.305Z,17.90
2023-04-15T06:34:47.321Z,17.85
2023-04-15T06:37:16.446Z,17.33
2023-04-15T06:39:44.808Z,18.23
2023-04-15T06:42:12.377Z,17.73
2023-04-15T06:44:39.533Z,17.77
2023-04-15T06:47:06.561Z,17.80
2023-04-15T06:49:33.875Z,17.08
2023-04-15T06:52:01.760Z,16.98
2023-04-15T06:54:28.762Z,17.45
2023-04-15T06:56:55.859Z,17.50
2023-04-15T06:59:22.802Z,17.45
2023-04-15T07:01:49.883Z,19.15
2023-04-15T07:04:16.898Z,25.08
2023-04-15T07:06:44.722Z,21.35
2023-04-15T07:09:11.837Z,18.15
2023-04-15T07:11:38.796Z,17.60
2023-04-15T07:14:06.816Z,17.50
2023-04-15T07:16:33.853Z,17.55
2023-04-15T07:19:01.128Z,17.10
2023-04-15T07:21:28.434Z,18.00
2023-04-15T07:23:55.472Z,17.85
2023-04-15T07:26:23.575Z,17.00
2023-04-15T07:28:50.834Z,17.17
2023-04-15T07:31:17.914Z,17.48
2023-04-15T07:33:45.209Z,17.63
2023-04-15T07:36:12.240Z,18.13
2023-04-15T07:38:39.894Z,17.95
2023-04-15T07:41:06.928Z,17.80
2023-04-15T07:43:33.899Z,61.25
2023-04-15T07:46:00.902Z,22.63
2023-04-15T07:48:27.911Z,22.42
2023-04-15T07:50:54.937Z,18.63
2023-04-15T07:53:22.007Z,21.48
2023-04-15T07:55:48.995Z,28.20
2023-04-15T07:58:16.014Z,18.63
2023-04-15T08:00:43.030Z,18.13
2023-04-15T08:03:10.132Z,22.15
2023-04-15T08:05:37.206Z,19.83
2023-04-15T08:08:04.132Z,18.60
2023-04-15T08:10:31.684Z,17.92
2023-04-15T08:12:58.728Z,19.48
2023-04-15T08:15:26.713Z,17.60
2023-04-15T08:17:53.804Z,17.73
2023-04-15T08:20:21.049Z,18.20
2023-04-15T08:22:52.050Z,17.33
2023-04-15T08:25:20.374Z,17.70
2023-04-15T08:27:47.545Z,17.15
2023-04-15T08:30:15.476Z,17.85
2023-04-15T08:32:49.990Z,18.67
2023-04-15T08:35:17.280Z,17.88
2023-04-15T08:37:44.254Z,18.60
2023-04-15T08:40:11.729Z,18.17
2023-04-15T08:42:45.747Z,18.35
2023-04-15T08:45:13.434Z,17.98
2023-04-15T08:47:41.207Z,17.55
2023-04-15T08:50:10.843Z,18.10
2023-04-15T08:52:37.855Z,17.45
2023-04-15T08:55:06.228Z,17.48
2023-04-15T08:57:33.835Z,18.13
2023-04-15T09:00:05.652Z,17.52
2023-04-15T09:02:33.028Z,17.42
2023-04-15T09:05:00.053Z,18.10
2023-04-15T09:07:27.291Z,18.15
2023-04-15T09:09:54.326Z,18.23
2023-04-15T09:12:22.007Z,17.63
2023-04-15T09:14:49.513Z,19.92
2023-04-15T09:17:24.837Z,17.88
2023-04-15T09:20:08.547Z,18.42
2023-04-15T09:22:36.739Z,19.07
2023-04-15T09:25:04.189Z,17.63
2023-04-15T09:27:31.245Z,20.17
2023-04-15T09:29:58.189Z,20.88
2023-04-15T09:32:25.222Z,20.25
2023-04-15T09:34:52.454Z,19.58
2023-04-15T09:37:34.665Z,18.75
2023-04-15T09:40:01.737Z,19.85
2023-04-15T09:42:28.962Z,19.63
2023-04-15T09:44:56.161Z,19.15
2023-04-15T09:47:30.238Z,18.88
2023-04-15T09:50:01.315Z,18.85
2023-04-15T09:52:29.075Z,17.75
2023-04-15T09:54:58.379Z,18.38
2023-04-15T09:57:25.560Z,17.50
2023-04-15T09:59:52.823Z,17.10
2023-04-15T10:02:21.522Z,17.25
2023-04-15T10:04:49.660Z,17.95
2023-04-15T10:07:20.776Z,16.90
2023-04-15T10:09:49.298Z,16.77
2023-04-15T10:12:20.472Z,17.35
2023-04-15T10:15:05.176Z,17.52
2023-04-15T10:17:35.639Z,17.25
2023-04-15T10:20:04.923Z,17.67
2023-04-15T10:22:33.190Z,18.50
2023-04-15T10:25:01.294Z,18.48
2023-04-15T10:27:29.200Z,19.10
2023-04-15T10:29:57.407Z,18.60
2023-04-15T10:32:25.781Z,18.92
2023-04-15T10:34:54.695Z,18.38
2023-04-15T10:37:23.690Z,18.55
2023-04-15T10:39:51.173Z,19.50
2023-04-15T10:42:19.755Z,19.27
2023-04-15T10:44:53.921Z,19.30
2023-04-15T10:47:22.202Z,18.98
2023-04-15T10:49:58.016Z,19.05
2023-04-15T10:52:27.757Z,18.35
2023-04-15T10:55:15.897Z,18.92
2023-04-15T10:57:44.214Z,18.83
2023-04-15T11:00:15.992Z,19.00
2023-04-15T11:02:56.663Z,18.85
2023-04-15T11:05:49.685Z,18.00
2023-04-15T11:08:17.240Z,18.23
2023-04-15T11:10:44.125Z,18.23
2023-04-15T11:13:11.169Z,17.85
2023-04-15T11:15:43.249Z,17.55
2023-04-15T11:18:17.308Z,17.15
2023-04-15T11:20:50.642Z,18.20
2023-04-15T11:23:31.724Z,16.90
2023-04-15T11:26:00.208Z,17.17
2023-04-15T11:28:31.728Z,17.50
2023-04-15T11:30:59.374Z,19.75
2023-04-15T11:33:27.147Z,18.15
2023-04-15T11:35:57.160Z,17.75
2023-04-15T11:38:24.245Z,17.52
2023-04-15T11:40:52.416Z,17.27
2023-04-15T11:43:21.296Z,17.73
2023-04-15T12:37:22.240Z,19.77
2023-04-15T12:39:50.595Z,19.23
2023-04-15T12:42:18.535Z,19.48
2023-04-15T12:44:45.862Z,17.50
2023-04-15T12:47:18.267Z,19.20
2023-04-15T12:49:45.830Z,20.02
2023-04-15T12:52:13.671Z,19.17
2023-04-15T12:54:40.707Z,20.60
2023-04-15T12:57:07.932Z,21.88
2023-04-15T12:59:35.756Z,23.02
2023-04-15T13:02:04.690Z,25.95
2023-04-15T13:04:32.176Z,25.30
2023-04-15T13:06:59.337Z,24.77
2023-04-15T13:09:26.558Z,26.90
2023-04-15T13:11:54.504Z,28.08
2023-04-15T13:14:21.734Z,26.98
2023-04-15T13:16:48.749Z,27.10
2023-04-15T13:19:15.998Z,28.33
2023-04-15T13:21:43.088Z,24.80
2023-04-15T13:24:10.098Z,23.80
2023-04-15T13:26:37.951Z,22.95
2023-04-15T13:29:05.316Z,23.40
2023-04-15T13:31:32.518Z,23.10
2023-04-15T13:33:59.608Z,22.80
2023-04-15T13:36:27.670Z,23.35
2023-04-15T13:38:54.950Z,23.63
2023-04-15T13:41:22.034Z,23.33
2023-04-15T13:43:49.027Z,24.98
2023-04-15T13:46:16.233Z,24.42
2023-04-15T13:48:43.349Z,24.63
2023-04-15T13:51:10.493Z,24.00
2023-04-15T13:53:38.695Z,24.63
2023-04-15T13:56:10.381Z,23.17
2023-04-15T13:58:41.405Z,24.35
2023-04-15T14:01:08.697Z,24.10
2023-04-15T14:03:37.013Z,24.58
2023-04-15T14:06:05.287Z,24.13
2023-04-15T14:08:32.285Z,35.22
2023-04-15T14:10:59.309Z,27.52
2023-04-15T14:13:26.291Z,23.35
2023-04-15T14:15:53.362Z,23.98
2023-04-15T14:18:20.438Z,23.42
2023-04-15T14:20:47.397Z,22.58
2023-04-15T14:23:14.443Z,23.50
2023-04-15T14:25:41.437Z,23.08
2023-04-15T14:28:08.441Z,23.58
2023-04-15T14:30:35.751Z,24.23
2023-04-15T14:33:02.918Z,22.90
2023-04-15T14:35:30.128Z,22.08
2023-04-15T14:37:57.497Z,21.98
2023-04-15T14:40:24.484Z,22.83
2023-04-15T14:42:51.433Z,22.80
2023-04-15T14:45:18.530Z,22.52
2023-04-15T14:47:45.661Z,22.50
2023-04-15T14:50:12.779Z,28.60
2023-04-15T14:52:39.834Z,30.10
2023-04-15T14:55:08.280Z,28.77
2023-04-15T14:57:36.165Z,21.42
2023-04-15T15:00:04.687Z,18.38
2023-04-15T15:02:39.234Z,18.38
2023-04-15T15:05:08.443Z,17.33
2023-04-15T15:07:37.296Z,19.85
2023-04-15T15:10:05.102Z,19.13
2023-04-15T15:12:33.275Z,17.38
2023-04-15T15:15:01.590Z,17.33
2023-04-15T15:17:30.495Z,17.00
2023-04-15T15:19:57.694Z,17.27
2023-04-15T15:22:26.258Z,30.42
2023-04-15T15:24:53.695Z,24.55
2023-04-15T15:27:20.981Z,19.15
2023-04-15T15:29:49.128Z,17.63
2023-04-15T15:32:16.195Z,17.20
2023-04-15T15:34:43.110Z,17.55
2023-04-15T15:37:10.089Z,17.45
2023-04-15T15:39:37.093Z,17.15
2023-04-15T15:42:04.132Z,18.67
2023-04-15T15:44:32.483Z,39.53
2023-04-15T15:47:00.544Z,31.45
2023-04-15T15:49:28.526Z,19.63
2023-04-15T15:51:56.666Z,19.02
2023-04-15T15:54:24.319Z,19.10
2023-04-15T15:56:51.386Z,19.23
2023-04-15T15:59:18.387Z,20.05
2023-04-15T16:01:45.600Z,20.45
2023-04-15T16:04:12.889Z,21.27
2023-04-15T16:06:40.829Z,21.10
2023-04-15T16:09:07.793Z,20.15
2023-04-15T16:11:34.866Z,26.90
2023-04-15T16:14:01.934Z,43.00
2023-04-15T16:16:30.187Z,26.33
2023-04-15T16:19:00.358Z,30.92
2023-04-15T16:21:27.498Z,36.28
2023-04-15T16:23:54.529Z,24.98
2023-04-15T16:26:21.901Z,23.55
2023-04-15T16:28:48.938Z,22.52
2023-04-15T16:31:15.934Z,23.25
2023-04-15T16:33:42.961Z,24.40
2023-04-15T16:36:09.907Z,25.38
2023-04-15T16:38:36.986Z,26.85
2023-04-15T16:41:04.053Z,26.63
2023-04-15T16:43:31.064Z,39.20
2023-04-15T16:45:58.117Z,40.78
2023-04-15T16:48:25.339Z,57.92
2023-04-15T16:50:52.301Z,32.28
2023-04-15T16:53:19.297Z,28.30
2023-04-15T16:55:46.224Z,27.27
2023-04-15T16:58:13.214Z,26.80
2023-04-15T17:00:40.381Z,27.38
2023-04-15T17:03:07.567Z,27.23
2023-04-15T17:05:34.890Z,27.67
2023-04-15T17:08:02.014Z,28.08
2023-04-15T17:10:29.084Z,27.92
2023-04-15T17:12:57.622Z,27.42
2023-04-15T17:15:25.072Z,27.88
2023-04-15T17:17:52.185Z,26.02
2023-04-15T17:20:20.046Z,27.10
2023-04-15T17:22:48.233Z,25.92
2023-04-15T17:25:15.347Z,25.95
2023-04-15T17:27:42.404Z,26.08
2023-04-15T17:30:09.789Z,26.98
2023-04-15T17:32:37.350Z,26.23
2023-04-15T17:35:06.579Z,27.05
2023-04-15T17:37:34.507Z,21.58
2023-04-15T17:40:01.624Z,22.02
2023-04-15T17:42:28.833Z,22.20
2023-04-15T17:44:55.980Z,22.77
2023-04-15T17:47:23.210Z,23.33
2023-04-15T17:49:50.199Z,22.48
2023-04-15T17:52:17.193Z,24.48
2023-04-15T17:54:45.490Z,23.77
2023-04-15T17:57:12.552Z,26.23
2023-04-15T17:59:44.040Z,25.08
2023-04-15T18:02:11.720Z,24.42
2023-04-15T18:04:39.604Z,23.92
2023-04-15T18:07:06.932Z,24.02
2023-04-15T18:09:34.076Z,24.20
2023-04-15T18:12:02.207Z,27.85
2023-04-15T18:14:34.758Z,25.23
2023-04-15T18:17:05.359Z,23.38
2023-04-15T18:19:32.745Z,23.75
2023-04-15T18:22:00.655Z,23.23
2023-04-15T18:24:28.227Z,23.48
2023-04-15T18:26:55.302Z,23.50
2023-04-15T18:29:22.494Z,25.55
2023-04-15T18:31:49.486Z,26.48
2023-04-15T18:34:16.585Z,24.27
2023-04-15T18:36:43.616Z,24.10
2023-04-15T18:39:10.731Z,24.88
2023-04-15T18:41:37.746Z,23.70
2023-04-15T18:44:04.762Z,23.80
2023-04-15T18:46:31.770Z,25.92
2023-04-15T18:48:58.743Z,24.75
2023-04-15T18:51:26.095Z,24.70
2023-04-15T18:53:53.042Z,26.75
2023-04-15T18:56:20.063Z,24.45
2023-04-15T18:59:27.598Z,24.35
2023-04-15T19:01:34.599Z,24.85
2023-04-15T19:04:02.554Z,24.45
2023-04-15T19:06:31.029Z,24.25
2023-04-15T19:08:58.745Z,25.05
2023-04-15T19:11:26.397Z,24.85
2023-04-15T19:13:54.821Z,25.30
2023-04-15T19:16:21.787Z,25.08
2023-04-15T19:18:48.833Z,25.35
2023-04-15T19:21:16.140Z,25.00
2023-04-15T19:23:43.239Z,25.35
2023-04-15T19:26:10.657Z,25.73
2023-04-15T19:28:37.762Z,25.35
2023-04-15T19:31:05.000Z,26.13
2023-04-15T19:33:32.161Z,25.58
2023-04-15T19:36:04.368Z,26.05
2023-04-15T19:38:32.095Z,25.98
2023-04-15T19:40:59.451Z,25.80
2023-04-15T19:43:26.632Z,25.08
2023-04-15T19:45:54.842Z,25.00
2023-04-15T19:48:23.129Z,25.10
2023-04-15T19:50:50.238Z,25.15
2023-04-15T19:53:17.216Z,24.88
2023-04-15T19:55:44.365Z,24.88
2023-04-15T19:58:11.443Z,24.58
2023-04-15T20:00:38.766Z,24.77
2023-04-15T20:03:06.279Z,24.67
2023-04-15T20:05:33.372Z,25.40
2023-04-15T20:08:01.736Z,25.50
2023-04-15T20:10:28.875Z,25.13
2023-04-15T20:12:55.808Z,25.45
2023-04-15T20:15:24.105Z,26.08
2023-04-15T20:17:51.442Z,26.23
2023-04-15T20:20:18.696Z,26.40
2023-04-15T20:22:45.664Z,26.00
2023-04-15T20:25:13.181Z,25.75
2023-04-15T20:27:40.548Z,26.35
2023-04-15T20:30:08.123Z,26.17
2023-04-15T20:32:36.109Z,25.70
2023-04-15T20:35:05.060Z,25.55
2023-04-15T20:37:33.390Z,27.52
2023-04-15T20:40:01.448Z,26.52
2023-04-15T20:42:32.203Z,25.90
2023-04-15T20:44:59.225Z,25.70
2023-04-15T20:47:26.445Z,27.02
2023-04-15T20:49:54.177Z,27.38
2023-04-15T20:52:21.281Z,27.55
2023-04-15T20:54:48.287Z,29.02
2023-04-15T20:57:15.551Z,27.40
2023-04-15T20:59:42.800Z,27.08
2023-04-15T21:02:09.914Z,26.52
2023-04-15T21:04:38.533Z,26.60
2023-04-15T21:07:05.708Z,26.10
2023-04-15T21:09:32.806Z,26.58
2023-04-15T21:12:01.884Z,27.08
2023-04-15T21:14:29.675Z,26.95
2023-04-15T21:16:59.671Z,26.60
2023-04-15T21:19:26.808Z,29.77
2023-04-15T21:21:53.769Z,30.48
2023-04-15T21:24:20.866Z,30.95
2023-04-15T21:26:47.830Z,28.50
2023-04-15T21:29:14.954Z,28.55
2023-04-15T21:31:42.194Z,27.92
2023-04-15T21:34:09.909Z,28.50
2023-04-15T21:36:38.501Z,28.85
2023-04-15T21:39:06.232Z,30.73
2023-04-15T21:41:33.389Z,27.98
2023-04-15T21:44:00.405Z,27.90
2023-04-15T21:46:32.841Z,27.30
2023-04-15T21:49:02.166Z,25.95
2023-04-15T21:51:29.123Z,27.45
2023-04-15T21:53:56.117Z,26.83
2023-04-15T21:56:24.403Z,27.20
2023-04-15T21:58:54.587Z,26.90
2023-04-15T22:01:21.583Z,27.08
2023-04-15T22:03:49.154Z,27.23
2023-04-15T22:06:16.435Z,27.73
2023-04-15T22:08:55.028Z,27.88
2023-04-15T22:11:27.651Z,27.27
2023-04-15T22:13:55.688Z,27.73
2023-04-15T22:16:22.733Z,28.17
2023-04-15T22:18:49.796Z,28.30
2023-04-15T22:21:16.819Z,28.80
2023-04-15T22:23:47.667Z,28.75
2023-04-15T22:26:14.822Z,29.40
2023-04-15T22:28:42.176Z,30.02
2023-04-15T22:31:09.269Z,29.95
2023-04-15T22:33:36.528Z,31.38
2023-04-15T22:36:03.676Z,30.30
2023-04-15T22:38:30.891Z,30.25
2023-04-15T22:40:58.493Z,30.30
2023-04-15T22:43:27.514Z,31.08
2023-04-15T22:45:55.116Z,30.55
2023-04-15T22:48:23.065Z,30.02
2023-04-15T22:50:50.322Z,31.27
2023-04-15T22:53:18.055Z,31.05
2023-04-15T22:55:46.925Z,30.75
2023-04-15T22:58:14.712Z,30.95
2023-04-15T23:00:41.930Z,31.55
2023-04-15T23:03:09.182Z,31.38
2023-04-15T23:05:36.603Z,31.63
2023-04-15T23:08:03.885Z,31.20
2023-04-15T23:10:30.991Z,30.52
2023-04-15T23:12:57.974Z,31.20
2023-04-15T23:15:25.447Z,31.25
2023-04-15T23:17:52.485Z,30.08
2023-04-15T23:20:19.517Z,31.15
2023-04-15T23:22:46.455Z,30.67
2023-04-15T23:25:13.475Z,31.17
2023-04-15T23:27:40.522Z,31.02
2023-04-15T23:30:08.128Z,31.60
2023-04-15T23:32:35.302Z,31.35
2023-04-15T23:35:02.329Z,31.48
2023-04-15T23:37:33.748Z,32.08
2023-04-15T23:40:00.798Z,31.80
2023-04-15T23:42:27.799Z,31.73
2023-04-15T23:44:54.761Z,31.25
2023-04-15T23:47:21.982Z,32.17
2023-04-15T23:49:49.019Z,32.00
2023-04-15T23:52:16.052Z,31.85
2023-04-15T23:54:43.009Z,31.77
2023-04-15T23:57:10.067Z,32.00
2023-04-15T23:59:37.000Z,32.80
